createdAt,value
2019-05-19T00:01:10.561Z,82.50
2019-05-19T00:03:12.236Z,84.10
2019-05-19T00:05:14.019Z,78.30
2019-05-19T00:07:16.090Z,73.30
2019-05-19T00:09:17.753Z,76.70
2019-05-19T00:11:19.436Z,80.70
2019-05-19T00:13:21.088Z,70.70
2019-05-19T00:15:22.776Z,73.30
2019-05-19T00:17:24.448Z,74.90
2019-05-19T00:19:27.127Z,75.00
2019-05-19T00:21:29.097Z,71.80
2019-05-19T00:23:30.752Z,72.10
2019-05-19T00:25:33.175Z,76.70
2019-05-19T00:27:34.922Z,78.40
2019-05-19T00:29:36.593Z,79.20
2019-05-19T00:31:38.265Z,79.70
2019-05-19T00:33:39.937Z,79.60
2019-05-19T00:35:41.617Z,81.50
2019-05-19T00:37:43.281Z,84.30
2019-05-19T00:39:44.947Z,84.40
2019-05-19T00:41:46.613Z,85.00
2019-05-19T00:43:48.615Z,72.40
2019-05-19T00:45:50.564Z,78.20
2019-05-19T00:47:52.236Z,81.80
2019-05-19T00:49:53.916Z,86.60
2019-05-19T00:51:55.901Z,85.90
2019-05-19T00:53:57.574Z,82.30
2019-05-19T00:55:59.305Z,79.90
2019-05-19T00:58:01.237Z,84.90
2019-05-19T01:00:03.533Z,82.50
2019-05-19T01:02:05.205Z,86.60
2019-05-19T01:04:06.873Z,84.00
2019-05-19T01:06:08.661Z,77.70
2019-05-19T01:08:10.585Z,77.40
2019-05-19T01:10:12.540Z,78.00
2019-05-19T01:12:14.204Z,76.70
2019-05-19T01:14:16.216Z,63.00
2019-05-19T01:16:17.892Z,62.00
2019-05-19T01:18:19.578Z,69.40
2019-05-19T01:20:21.259Z,70.90
2019-05-19T01:22:23.025Z,71.40
2019-05-19T01:24:24.681Z,75.20
2019-05-19T01:26:26.368Z,73.60
2019-05-19T01:28:28.024Z,77.00
2019-05-19T01:30:29.705Z,75.00
2019-05-19T01:32:31.373Z,74.10
2019-05-19T01:34:33.042Z,71.50
2019-05-19T01:36:34.700Z,73.70
2019-05-19T01:38:36.697Z,69.00
2019-05-19T01:40:38.717Z,70.10
2019-05-19T01:42:40.629Z,67.50
2019-05-19T01:44:42.306Z,70.80
2019-05-19T01:46:43.993Z,77.70
2019-05-19T01:48:45.664Z,84.70
2019-05-19T01:50:47.342Z,82.80
2019-05-19T01:52:49.021Z,81.10
2019-05-19T01:54:50.891Z,86.90
2019-05-19T01:56:52.899Z,87.20
2019-05-19T01:58:54.905Z,84.10
2019-05-19T02:00:56.591Z,78.20
2019-05-19T02:02:58.251Z,78.60
2019-05-19T02:05:00.421Z,79.10
2019-05-19T02:07:02.393Z,83.20
2019-05-19T02:09:05.888Z,84.70
2019-05-19T02:11:07.561Z,83.70
2019-05-19T02:13:09.233Z,81.50
2019-05-19T02:15:10.905Z,81.80
2019-05-19T02:17:12.579Z,79.90
2019-05-19T02:19:14.247Z,82.10
2019-05-19T02:21:15.924Z,80.90
2019-05-19T02:23:17.590Z,81.80
2019-05-19T02:25:19.310Z,84.20
2019-05-19T02:27:21.357Z,90.10
2019-05-19T02:29:23.009Z,90.30
2019-05-19T02:31:24.684Z,81.70
2019-05-19T02:33:26.346Z,81.90
2019-05-19T02:35:28.171Z,84.20
2019-05-19T02:37:29.856Z,83.80
2019-05-19T02:39:31.513Z,81.80
2019-05-19T02:41:33.181Z,84.40
2019-05-19T02:43:34.962Z,83.40
2019-05-19T02:45:36.636Z,85.30
2019-05-19T02:47:39.239Z,88.20
2019-05-19T02:49:40.892Z,83.20
2019-05-19T02:51:42.934Z,79.30
2019-05-19T02:53:44.608Z,79.60
2019-05-19T02:55:46.461Z,75.70
2019-05-19T02:57:48.142Z,76.10
2019-05-19T02:59:49.967Z,77.10
2019-05-19T03:02:02.953Z,78.30
2019-05-19T03:04:04.713Z,80.80
2019-05-19T03:06:06.381Z,85.70
2019-05-19T03:08:08.162Z,91.60
2019-05-19T03:10:10.281Z,91.10
2019-05-19T03:12:11.954Z,93.10
2019-05-19T03:14:13.625Z,92.00
2019-05-19T03:16:15.295Z,91.20
2019-05-19T03:18:16.975Z,91.60
2019-05-19T03:20:18.950Z,90.20
2019-05-19T03:22:20.631Z,92.30
2019-05-19T03:24:22.298Z,92.90
2019-05-19T03:26:23.969Z,92.90
2019-05-19T03:28:25.646Z,93.20
2019-05-19T03:30:49.977Z,94.40
2019-05-19T03:32:55.382Z,94.50
2019-05-19T03:34:57.354Z,94.10
2019-05-19T03:36:59.378Z,94.00
2019-05-19T03:39:01.054Z,93.20
2019-05-19T03:41:02.729Z,92.60
2019-05-19T03:43:04.408Z,91.60
2019-05-19T03:45:06.100Z,91.60
2019-05-19T03:47:07.907Z,91.70
2019-05-19T03:49:09.578Z,91.20
2019-05-19T03:51:27.512Z,92.50
2019-05-19T03:53:14.809Z,92.70
2019-05-19T03:55:16.478Z,92.00
2019-05-19T03:57:18.164Z,90.50
2019-05-19T03:59:19.923Z,88.90
2019-05-19T04:01:21.580Z,87.60
2019-05-19T04:03:23.508Z,87.70
2019-05-19T04:05:25.433Z,88.00
2019-05-19T04:07:27.104Z,87.90
2019-05-19T04:09:28.770Z,86.80
2019-05-19T04:11:30.435Z,87.80
2019-05-19T04:13:32.115Z,90.20
2019-05-19T04:15:33.769Z,89.50
2019-05-19T04:17:35.432Z,90.50
2019-05-19T04:19:37.100Z,91.60
2019-05-19T04:21:48.344Z,93.00
2019-05-19T04:23:43.397Z,93.80
2019-05-19T04:25:45.066Z,94.00
2019-05-19T04:27:46.753Z,93.70
2019-05-19T04:29:48.542Z,93.40
2019-05-19T04:31:50.278Z,93.90
2019-05-19T04:33:51.954Z,94.20
2019-05-19T04:35:57.302Z,94.90
2019-05-19T04:37:57.198Z,95.00
2019-05-19T04:39:58.866Z,95.40
2019-05-19T04:42:00.533Z,95.70
2019-05-19T04:44:02.324Z,95.50
2019-05-19T04:46:03.997Z,95.40
2019-05-19T04:48:09.345Z,96.40
2019-05-19T04:50:09.240Z,96.70
2019-05-19T04:52:11.006Z,96.90
2019-05-19T04:54:12.690Z,96.40
2019-05-19T04:56:14.786Z,96.20
2019-05-19T04:58:16.468Z,97.00
2019-05-19T05:00:18.114Z,95.90
2019-05-19T05:02:19.793Z,96.60
2019-05-19T05:04:21.816Z,96.90
2019-05-19T05:06:23.574Z,96.90
2019-05-19T05:08:30.332Z,96.70
2019-05-19T05:10:28.913Z,97.00
2019-05-19T05:12:30.584Z,97.20
2019-05-19T05:14:32.265Z,97.00
2019-05-19T05:16:34.233Z,97.20
2019-05-19T05:18:36.013Z,97.50
2019-05-19T05:20:37.685Z,97.60
2019-05-19T05:22:39.353Z,97.10
2019-05-19T05:24:41.029Z,97.60
2019-05-19T05:26:42.694Z,97.90
2019-05-19T05:28:44.357Z,98.50
2019-05-19T05:30:46.022Z,99.40
2019-05-19T05:32:47.714Z,99.60
2019-05-19T05:34:49.377Z,99.80
2019-05-19T05:36:51.131Z,99.30
2019-05-19T05:38:52.867Z,98.80
2019-05-19T05:40:54.529Z,98.60
2019-05-19T05:42:56.214Z,98.10
2019-05-19T05:44:57.889Z,99.50
2019-05-19T05:46:59.556Z,97.60
2019-05-19T05:49:01.238Z,96.20
2019-05-19T05:51:02.933Z,93.70
2019-05-19T05:53:04.605Z,92.30
2019-05-19T05:55:06.270Z,93.00
2019-05-19T05:57:08.234Z,92.60
2019-05-19T05:59:09.926Z,90.10
2019-05-19T06:01:11.590Z,91.40
2019-05-19T06:03:13.271Z,89.60
2019-05-19T06:05:14.937Z,89.20
2019-05-19T06:07:16.606Z,90.40
2019-05-19T06:09:18.280Z,91.40
2019-05-19T06:11:19.945Z,85.80
2019-05-19T06:13:21.637Z,84.10
2019-05-19T06:15:23.356Z,86.20
2019-05-19T06:17:25.088Z,83.10
2019-05-19T06:19:26.761Z,78.10
2019-05-19T06:21:28.430Z,78.30
2019-05-19T06:23:30.106Z,79.80
2019-05-19T06:25:31.882Z,72.80
2019-05-19T06:27:33.973Z,72.70
2019-05-19T06:29:35.653Z,68.50
2019-05-19T06:31:37.459Z,71.00
2019-05-19T06:33:39.124Z,75.70
2019-05-19T06:35:40.790Z,70.50
2019-05-19T06:37:42.455Z,61.40
2019-05-19T06:39:44.133Z,64.10
2019-05-19T06:41:46.108Z,60.40
2019-05-19T06:43:47.797Z,60.30
2019-05-19T06:45:49.465Z,58.80
2019-05-19T06:47:51.160Z,62.10
2019-05-19T06:49:52.906Z,49.10
2019-05-19T06:51:54.574Z,41.20
2019-05-19T06:53:56.258Z,48.80
2019-05-19T06:55:58.010Z,34.40
2019-05-19T06:57:59.690Z,44.20
2019-05-19T07:00:01.419Z,34.20
2019-05-19T07:02:03.545Z,39.40
2019-05-19T07:04:05.223Z,44.80
2019-05-19T07:06:06.886Z,32.70
2019-05-19T07:08:08.549Z,34.80
2019-05-19T07:10:10.216Z,29.10
2019-05-19T07:12:12.226Z,26.70
2019-05-19T07:14:13.994Z,30.00
2019-05-19T07:16:15.657Z,23.70
2019-05-19T07:18:17.322Z,28.10
2019-05-19T07:20:18.992Z,25.60
2019-05-19T07:22:20.661Z,26.20
2019-05-19T07:24:22.342Z,19.40
2019-05-19T07:26:24.000Z,20.70
2019-05-19T07:28:25.666Z,19.50
2019-05-19T07:30:27.341Z,21.10
2019-05-19T07:32:29.013Z,18.40
2019-05-19T07:34:30.710Z,16.50
2019-05-19T07:36:32.469Z,22.80
2019-05-19T07:38:34.116Z,16.40
2019-05-19T07:40:35.830Z,16.20
2019-05-19T07:42:37.593Z,24.60
2019-05-19T07:44:39.275Z,13.20
2019-05-19T07:46:40.946Z,11.40
2019-05-19T07:48:42.608Z,10.00
2019-05-19T07:50:44.731Z,14.10
2019-05-19T07:52:46.403Z,10.20
2019-05-19T07:54:48.073Z,11.90
2019-05-19T07:56:49.785Z,11.60
2019-05-19T07:58:51.449Z,13.60
2019-05-19T08:00:53.145Z,15.90
2019-05-19T08:02:54.900Z,9.70
2019-05-19T08:04:56.582Z,9.60
2019-05-19T08:06:58.245Z,3.10
2019-05-19T08:08:59.900Z,5.20
2019-05-19T08:11:01.687Z,2.60
2019-05-19T08:13:03.562Z,2.30
2019-05-19T08:15:05.653Z,10.70
2019-05-19T08:17:07.339Z,4.50
2019-05-19T08:19:09.701Z,5.00
2019-05-19T08:21:11.399Z,2.70
2019-05-19T08:23:13.066Z,1.60
2019-05-19T08:25:14.805Z,1.00
2019-05-19T08:27:16.720Z,2.00
2019-05-19T08:29:18.676Z,1.00
2019-05-19T08:31:20.359Z,1.00
2019-05-19T08:33:22.326Z,1.00
2019-05-19T08:35:24.093Z,1.00
2019-05-19T08:37:26.101Z,4.90
2019-05-19T08:39:27.761Z,1.00
2019-05-19T08:41:30.402Z,1.00
2019-05-19T08:43:32.082Z,1.00
2019-05-19T08:45:34.041Z,1.00
2019-05-19T08:47:35.985Z,3.60
2019-05-19T08:49:37.656Z,1.00
2019-05-19T08:51:39.331Z,1.00
2019-05-19T08:53:40.997Z,1.00
2019-05-19T08:55:42.685Z,1.00
2019-05-19T08:57:44.354Z,1.00
2019-05-19T08:59:46.004Z,1.00
2019-05-19T09:01:47.678Z,1.00
2019-05-19T09:03:49.346Z,1.00
2019-05-19T09:05:51.277Z,1.00
2019-05-19T09:07:52.944Z,1.00
2019-05-19T09:09:54.621Z,1.00
2019-05-19T09:11:56.569Z,1.00
2019-05-19T09:13:58.246Z,1.00
2019-05-19T09:16:00.225Z,1.00
2019-05-19T09:18:02.173Z,1.00
2019-05-19T09:20:03.988Z,1.00
2019-05-19T09:22:05.657Z,1.00
2019-05-19T09:24:07.329Z,1.00
2019-05-19T09:26:09.325Z,1.00
2019-05-19T09:28:11.098Z,1.00
2019-05-19T09:30:12.773Z,1.00
2019-05-19T09:32:14.443Z,1.00
2019-05-19T09:34:16.105Z,1.00
2019-05-19T09:36:17.781Z,1.00
2019-05-19T09:38:19.438Z,1.00
2019-05-19T09:40:21.112Z,1.00
2019-05-19T09:42:22.788Z,1.00
2019-05-19T09:44:24.557Z,1.00
2019-05-19T09:46:26.226Z,1.00
2019-05-19T09:48:27.901Z,1.00
2019-05-19T09:50:29.864Z,1.00
2019-05-19T09:52:31.620Z,1.00
2019-05-19T09:54:44.182Z,1.00
2019-05-19T09:56:37.202Z,1.00
2019-05-19T09:58:39.355Z,1.00
2019-05-19T10:00:41.025Z,1.00
2019-05-19T10:02:42.681Z,1.00
2019-05-19T10:04:44.368Z,1.00
2019-05-19T10:06:46.057Z,1.00
2019-05-19T10:08:53.588Z,1.00
2019-05-19T10:11:22.952Z,1.00
2019-05-19T10:13:24.800Z,1.00
2019-05-19T10:15:26.468Z,1.00
2019-05-19T10:17:28.221Z,1.00
2019-05-19T10:19:29.891Z,1.00
2019-05-19T10:21:31.569Z,1.00
2019-05-19T10:23:33.224Z,1.00
2019-05-19T10:25:34.893Z,1.00
2019-05-19T10:27:36.564Z,1.00
2019-05-19T10:29:38.315Z,1.00
2019-05-19T10:31:40.127Z,1.00
2019-05-19T10:33:41.815Z,1.00
2019-05-19T10:35:43.561Z,1.00
2019-05-19T10:37:45.238Z,1.00
2019-05-19T10:39:46.903Z,1.00
2019-05-19T10:41:48.853Z,1.00
2019-05-19T10:44:00.724Z,1.00
2019-05-19T10:46:02.385Z,1.00
2019-05-19T10:48:04.145Z,1.00
2019-05-19T10:50:06.229Z,1.00
2019-05-19T10:52:07.924Z,1.00
2019-05-19T10:54:09.675Z,1.00
2019-05-19T10:56:11.360Z,1.00
2019-05-19T10:58:13.005Z,1.00
2019-05-19T11:00:14.989Z,1.00
2019-05-19T11:02:16.691Z,1.00
2019-05-19T11:04:18.358Z,1.00
2019-05-19T11:06:20.269Z,1.00
2019-05-19T11:08:21.928Z,1.00
2019-05-19T11:10:23.599Z,1.00
2019-05-19T11:12:25.260Z,1.00
2019-05-19T11:14:26.929Z,1.00
2019-05-19T11:16:28.605Z,1.00
2019-05-19T11:18:30.838Z,1.00
2019-05-19T11:20:35.027Z,1.00
2019-05-19T11:22:36.877Z,1.00
2019-05-19T11:24:38.532Z,1.00
2019-05-19T11:26:40.224Z,1.00
2019-05-19T11:28:41.889Z,1.00
2019-05-19T11:30:43.571Z,1.00
2019-05-19T11:32:45.233Z,1.00
2019-05-19T11:34:47.160Z,1.00
2019-05-19T11:36:49.128Z,1.00
2019-05-19T11:38:51.457Z,1.00
2019-05-19T11:40:53.113Z,1.00
2019-05-19T11:42:54.796Z,1.00
2019-05-19T11:44:56.473Z,1.00
2019-05-19T11:46:58.401Z,1.00
2019-05-19T11:49:00.061Z,1.00
2019-05-19T11:51:01.730Z,1.00
2019-05-19T11:53:03.408Z,1.00
2019-05-19T11:55:05.065Z,1.00
2019-05-19T11:57:06.746Z,1.00
2019-05-19T11:59:08.709Z,1.00
2019-05-19T12:01:10.396Z,1.00
2019-05-19T12:03:12.060Z,1.00
2019-05-19T12:05:13.724Z,1.00
2019-05-19T12:07:15.402Z,1.00
2019-05-19T12:09:17.070Z,1.00
2019-05-19T12:11:18.837Z,1.00
2019-05-19T12:13:20.556Z,1.00
2019-05-19T12:15:22.224Z,1.00
2019-05-19T12:17:23.901Z,1.00
2019-05-19T12:19:25.568Z,1.00
2019-05-19T12:21:27.241Z,1.00
2019-05-19T12:23:29.170Z,1.00
2019-05-19T12:25:31.225Z,1.00
2019-05-19T12:27:33.626Z,1.00
2019-05-19T12:29:35.295Z,1.00
2019-05-19T12:31:36.966Z,1.00
2019-05-19T12:33:51.026Z,1.00
2019-05-19T12:35:42.214Z,1.00
2019-05-19T12:37:43.888Z,1.00
2019-05-19T12:39:45.545Z,1.00
2019-05-19T12:41:47.208Z,1.00
2019-05-19T12:43:48.896Z,1.00
2019-05-19T12:45:50.586Z,1.00
2019-05-19T12:47:52.354Z,1.00
2019-05-19T12:49:54.002Z,1.00
2019-05-19T12:51:55.664Z,1.00
2019-05-19T12:53:57.630Z,1.00
2019-05-19T12:55:59.545Z,1.00
2019-05-19T12:58:01.551Z,1.00
2019-05-19T13:00:03.282Z,1.00
2019-05-19T13:02:04.948Z,1.00
2019-05-19T13:04:06.625Z,1.00
2019-05-19T13:06:08.409Z,1.00
2019-05-19T13:08:11.610Z,1.00
2019-05-19T13:10:13.561Z,1.00
2019-05-19T13:12:15.221Z,1.00
2019-05-19T13:14:16.892Z,1.00
2019-05-19T13:16:18.561Z,1.00
2019-05-19T13:18:20.634Z,1.00
2019-05-19T13:20:22.625Z,1.00
2019-05-19T13:22:24.358Z,1.00
2019-05-19T13:24:26.030Z,1.00
2019-05-19T13:26:27.697Z,1.00
2019-05-19T13:28:29.402Z,1.00
2019-05-19T13:30:31.066Z,1.00
2019-05-19T13:32:32.769Z,1.00
2019-05-19T13:34:34.766Z,1.00
2019-05-19T13:36:36.422Z,1.00
2019-05-19T13:38:38.104Z,1.00
2019-05-19T13:40:39.770Z,1.00
2019-05-19T13:42:41.424Z,1.00
2019-05-19T13:44:43.108Z,1.00
2019-05-19T13:46:44.781Z,1.00
2019-05-19T13:48:46.444Z,1.00
2019-05-19T13:50:48.114Z,1.00
2019-05-19T13:52:51.325Z,1.00
2019-05-19T13:54:53.350Z,1.00
2019-05-19T13:56:55.005Z,1.00
2019-05-19T13:58:56.685Z,1.00
2019-05-19T14:00:58.349Z,1.00
2019-05-19T14:03:00.026Z,1.00
2019-05-19T14:05:01.705Z,1.00
2019-05-19T14:07:03.380Z,1.00
2019-05-19T14:09:05.152Z,1.00
2019-05-19T14:11:06.845Z,1.00
2019-05-19T14:13:08.522Z,1.00
2019-05-19T14:15:10.192Z,1.00
2019-05-19T14:17:11.867Z,1.00
2019-05-19T14:19:13.974Z,1.00
2019-05-19T14:21:15.637Z,1.00
2019-05-19T14:23:17.308Z,1.00
2019-05-19T14:25:18.982Z,1.00
2019-05-19T14:27:29.203Z,1.00
2019-05-19T14:29:24.239Z,1.00
2019-05-19T14:31:26.034Z,1.00
2019-05-19T14:33:28.101Z,1.00
2019-05-19T14:35:29.767Z,1.00
2019-05-19T14:37:31.432Z,1.00
2019-05-19T14:39:33.362Z,1.00
2019-05-19T14:41:42.954Z,1.00
2019-05-19T14:43:44.649Z,1.00
2019-05-19T14:45:46.416Z,1.00
2019-05-19T14:47:48.077Z,1.00
2019-05-19T14:49:49.758Z,1.00
2019-05-19T14:51:51.417Z,1.00
2019-05-19T14:53:53.111Z,1.00
2019-05-19T14:55:54.784Z,1.00
2019-05-19T14:57:56.450Z,1.00
2019-05-19T14:59:58.125Z,1.00
2019-05-19T15:01:59.789Z,1.00
2019-05-19T15:04:01.463Z,1.00
2019-05-19T15:06:03.129Z,1.00
2019-05-19T15:08:04.807Z,1.00
2019-05-19T15:10:07.075Z,1.00
2019-05-19T15:12:08.746Z,1.00
2019-05-19T15:14:10.425Z,1.00
2019-05-19T15:16:12.414Z,1.00
2019-05-19T15:18:14.090Z,1.00
2019-05-19T15:20:15.801Z,1.00
2019-05-19T15:22:17.533Z,1.00
2019-05-19T15:24:19.219Z,1.00
2019-05-19T15:26:20.886Z,1.00
2019-05-19T15:28:22.841Z,1.00
2019-05-19T15:30:24.521Z,1.00
2019-05-19T15:32:26.189Z,1.00
2019-05-19T15:34:27.865Z,1.00
2019-05-19T15:36:29.525Z,1.00
2019-05-19T15:38:31.228Z,1.00
2019-05-19T15:40:33.081Z,1.00
2019-05-19T15:42:35.004Z,1.00
2019-05-19T15:44:36.700Z,1.00
2019-05-19T15:46:38.353Z,1.00
2019-05-19T15:48:40.026Z,1.00
2019-05-19T15:50:41.701Z,1.00
2019-05-19T15:52:43.688Z,1.00
2019-05-19T15:54:45.364Z,1.00
2019-05-19T15:56:47.025Z,1.00
2019-05-19T15:58:48.714Z,1.00
2019-05-19T16:00:50.390Z,1.00
2019-05-19T16:02:52.365Z,1.00
2019-05-19T16:04:54.045Z,1.00
2019-05-19T16:06:55.705Z,1.00
2019-05-19T16:08:57.374Z,1.00
2019-05-19T16:10:59.046Z,1.00
2019-05-19T16:13:00.708Z,1.00
2019-05-19T16:15:02.702Z,1.00
2019-05-19T16:17:04.457Z,1.00
2019-05-19T16:19:06.125Z,1.00
2019-05-19T16:21:07.856Z,1.00
2019-05-19T16:23:09.521Z,1.00
2019-05-19T16:25:11.449Z,1.00
2019-05-19T16:27:13.129Z,1.00
2019-05-19T16:29:14.877Z,1.00
2019-05-19T16:31:16.554Z,1.00
2019-05-19T16:33:18.229Z,1.00
2019-05-19T16:35:20.526Z,1.00
2019-05-19T16:37:22.213Z,1.00
2019-05-19T16:39:23.969Z,1.00
2019-05-19T16:41:25.651Z,1.00
2019-05-19T16:43:27.553Z,1.00
2019-05-19T16:45:29.233Z,1.00
2019-05-19T16:47:30.944Z,1.00
2019-05-19T16:49:32.726Z,1.00
2019-05-19T16:51:34.407Z,1.00
2019-05-19T16:53:36.412Z,1.00
2019-05-19T16:55:38.447Z,1.00
2019-05-19T16:57:40.181Z,1.00
2019-05-19T16:59:42.193Z,1.00
2019-05-19T17:01:43.861Z,1.00
2019-05-19T17:03:45.533Z,1.00
2019-05-19T17:05:47.213Z,1.00
2019-05-19T17:07:48.873Z,1.00
2019-05-19T17:09:50.860Z,1.00
2019-05-19T17:11:52.520Z,1.00
2019-05-19T17:13:54.184Z,1.00
2019-05-19T17:15:55.857Z,1.00
2019-05-19T17:17:57.537Z,1.00
2019-05-19T17:19:59.506Z,1.00
2019-05-19T17:22:01.173Z,1.00
2019-05-19T17:24:03.140Z,1.00
2019-05-19T17:26:05.437Z,1.00
2019-05-19T17:28:07.102Z,1.00
2019-05-19T17:30:09.065Z,1.00
2019-05-19T17:32:10.982Z,1.00
2019-05-19T17:34:12.658Z,1.00
2019-05-19T17:36:14.345Z,1.00
2019-05-19T17:38:16.266Z,1.00
2019-05-19T17:40:18.206Z,1.00
2019-05-19T17:42:20.434Z,1.00
2019-05-19T17:44:22.141Z,1.00
2019-05-19T17:46:24.595Z,1.00
2019-05-19T17:48:27.048Z,1.00
2019-05-19T17:50:30.693Z,1.00
2019-05-19T17:52:32.348Z,1.00
2019-05-19T17:54:34.017Z,1.00
2019-05-19T17:56:35.740Z,1.00
2019-05-19T17:58:37.465Z,1.00
2019-05-19T18:00:39.958Z,1.00
2019-05-19T18:02:41.640Z,1.00
2019-05-19T18:04:43.733Z,1.00
2019-05-19T18:06:45.668Z,1.00
2019-05-19T18:08:47.328Z,1.00
2019-05-19T18:10:49.005Z,1.00
2019-05-19T18:12:50.980Z,1.00
2019-05-19T18:14:52.939Z,1.00
2019-05-19T18:16:54.617Z,1.00
2019-05-19T18:18:56.548Z,1.00
2019-05-19T18:20:58.229Z,1.00
2019-05-19T18:23:00.165Z,1.00
2019-05-19T18:25:01.871Z,1.00
2019-05-19T18:27:03.548Z,1.00
2019-05-19T18:29:05.824Z,1.00
2019-05-19T18:31:07.488Z,1.00
2019-05-19T18:33:09.162Z,1.00
2019-05-19T18:35:10.934Z,1.00
2019-05-19T18:37:13.556Z,1.00
2019-05-19T18:39:15.582Z,1.00
2019-05-19T18:41:17.265Z,1.00
2019-05-19T18:43:18.939Z,1.00
2019-05-19T18:45:20.618Z,1.00
2019-05-19T18:47:22.297Z,1.00
2019-05-19T18:49:23.962Z,1.00
2019-05-19T18:51:25.888Z,1.00
2019-05-19T18:53:27.856Z,1.00
2019-05-19T18:55:29.912Z,4.70
2019-05-19T18:57:31.754Z,7.90
2019-05-19T18:59:46.480Z,8.00
2019-05-19T19:01:36.994Z,6.30
2019-05-19T19:03:38.662Z,4.70
2019-05-19T19:05:40.625Z,4.80
2019-05-19T19:07:51.040Z,9.70
2019-05-19T19:09:52.709Z,13.70
2019-05-19T19:11:54.682Z,19.70
2019-05-19T19:13:56.354Z,17.90
2019-05-19T19:15:58.032Z,23.00
2019-05-19T19:17:59.711Z,25.60
2019-05-19T19:20:01.382Z,27.00
2019-05-19T19:22:03.065Z,28.30
2019-05-19T19:24:04.731Z,28.90
2019-05-19T19:26:06.388Z,29.90
2019-05-19T19:28:08.091Z,31.80
2019-05-19T19:30:10.143Z,32.00
2019-05-19T19:32:12.116Z,33.00
2019-05-19T19:34:13.777Z,31.60
2019-05-19T19:36:15.448Z,32.10
2019-05-19T19:38:17.133Z,36.10
2019-05-19T19:40:27.016Z,36.70
2019-05-19T19:42:28.684Z,33.50
2019-05-19T19:44:30.373Z,30.20
2019-05-19T19:46:32.053Z,29.90
2019-05-19T19:48:34.022Z,34.30
2019-05-19T19:50:35.694Z,34.00
2019-05-19T19:52:37.366Z,34.50
2019-05-19T19:54:39.034Z,34.60
2019-05-19T19:56:40.742Z,33.50
2019-05-19T19:58:42.412Z,32.80
2019-05-19T20:00:44.097Z,33.60
2019-05-19T20:02:45.769Z,31.40
2019-05-19T20:04:47.436Z,31.10
2019-05-19T20:06:49.409Z,32.40
2019-05-19T20:08:51.476Z,31.80
2019-05-19T20:10:53.217Z,34.50
2019-05-19T20:12:54.915Z,37.20
2019-05-19T20:14:56.660Z,35.80
2019-05-19T20:16:58.449Z,35.00
2019-05-19T20:19:00.132Z,34.70
2019-05-19T20:21:01.802Z,34.40
2019-05-19T20:23:03.486Z,34.20
2019-05-19T20:25:05.181Z,35.50
2019-05-19T20:27:07.146Z,36.90
2019-05-19T20:29:08.813Z,40.40
2019-05-19T20:31:10.479Z,42.30
2019-05-19T20:33:12.155Z,40.20
2019-05-19T20:35:14.153Z,41.10
2019-05-19T20:37:15.828Z,40.00
2019-05-19T20:39:17.502Z,42.00
2019-05-19T20:41:19.176Z,44.80
2019-05-19T20:43:20.847Z,42.60
2019-05-19T20:45:22.517Z,41.60
2019-05-19T20:47:24.197Z,41.80
2019-05-19T20:49:26.137Z,43.50
2019-05-19T20:51:29.719Z,42.40
2019-05-19T20:53:31.484Z,45.70
2019-05-19T20:55:33.455Z,43.90
2019-05-19T20:57:35.414Z,46.10
2019-05-19T20:59:37.086Z,44.50
2019-05-19T21:01:38.760Z,44.40
2019-05-19T21:03:40.444Z,43.20
2019-05-19T21:05:42.111Z,42.60
2019-05-19T21:07:43.789Z,42.90
2019-05-19T21:09:45.730Z,43.20
2019-05-19T21:11:47.403Z,43.40
2019-05-19T21:13:49.081Z,44.50
2019-05-19T21:15:51.110Z,45.70
2019-05-19T21:17:52.785Z,47.10
2019-05-19T21:19:54.453Z,48.00
2019-05-19T21:21:56.112Z,47.60
2019-05-19T21:23:57.781Z,48.00
2019-05-19T21:25:59.444Z,49.20
2019-05-19T21:28:01.130Z,49.20
2019-05-19T21:30:03.199Z,49.70
2019-05-19T21:32:05.126Z,50.90
2019-05-19T21:34:06.807Z,50.40
2019-05-19T21:36:09.113Z,51.60
2019-05-19T21:38:10.817Z,53.20
2019-05-19T21:40:12.573Z,53.70
2019-05-19T21:42:14.239Z,55.10
2019-05-19T21:44:15.931Z,55.30
2019-05-19T21:46:17.886Z,57.10
2019-05-19T21:48:30.850Z,58.30
2019-05-19T21:50:32.826Z,58.90
2019-05-19T21:52:34.489Z,58.00
2019-05-19T21:54:36.163Z,57.90
2019-05-19T21:56:37.837Z,58.30
2019-05-19T21:58:39.818Z,58.30
2019-05-19T22:00:41.898Z,58.80
2019-05-19T22:02:43.555Z,58.40
2019-05-19T22:04:45.257Z,59.60
2019-05-19T22:06:53.129Z,59.70
2019-05-19T22:08:54.826Z,59.70
2019-05-19T22:10:56.491Z,59.90
2019-05-19T22:12:58.184Z,61.80
2019-05-19T22:14:59.864Z,62.40
2019-05-19T22:17:01.525Z,60.60
2019-05-19T22:19:03.244Z,61.50
2019-05-19T22:21:04.909Z,57.00
2019-05-19T22:23:06.625Z,55.50
2019-05-19T22:25:08.373Z,54.90
2019-05-19T22:27:10.034Z,54.30
2019-05-19T22:29:11.713Z,55.70
2019-05-19T22:31:13.373Z,57.20
2019-05-19T22:33:15.077Z,59.70
2019-05-19T22:35:16.741Z,64.00
2019-05-19T22:37:18.425Z,62.10
2019-05-19T22:39:20.100Z,64.90
2019-05-19T22:41:21.762Z,61.60
2019-05-19T22:43:23.533Z,64.50
2019-05-19T22:45:25.200Z,68.00
2019-05-19T22:47:26.870Z,67.60
2019-05-19T22:49:28.788Z,69.70
2019-05-19T22:51:30.459Z,70.70
2019-05-19T22:53:32.682Z,70.60
2019-05-19T22:55:34.703Z,72.40
2019-05-19T22:57:36.420Z,71.20
2019-05-19T22:59:38.132Z,72.10
2019-05-19T23:01:51.099Z,70.90
2019-05-19T23:03:43.637Z,67.90
2019-05-19T23:05:45.300Z,68.70
2019-05-19T23:07:46.969Z,68.10
2019-05-19T23:09:48.646Z,69.50
2019-05-19T23:11:50.309Z,69.70
2019-05-19T23:13:51.976Z,69.50
2019-05-19T23:15:53.952Z,69.50
2019-05-19T23:17:55.622Z,69.40
2019-05-19T23:19:57.296Z,70.10
2019-05-19T23:21:58.962Z,71.10
2019-05-19T23:24:00.637Z,71.80
2019-05-19T23:26:02.372Z,72.60
2019-05-19T23:28:04.117Z,71.20
2019-05-19T23:30:05.936Z,72.20
2019-05-19T23:32:07.719Z,73.70
2019-05-19T23:34:09.466Z,74.00
2019-05-19T23:36:11.126Z,77.00
2019-05-19T23:38:12.789Z,75.90
2019-05-19T23:40:14.456Z,74.00
2019-05-19T23:42:16.133Z,73.20
2019-05-19T23:44:18.117Z,74.00
2019-05-19T23:46:19.785Z,72.90
2019-05-19T23:48:21.437Z,74.20
2019-05-19T23:50:23.364Z,74.00
2019-05-19T23:52:25.025Z,71.70
2019-05-19T23:54:26.983Z,71.00
2019-05-19T23:56:28.649Z,72.20
2019-05-19T23:58:30.304Z,72.20
